Time;durP1;ratioP1;P1;durP2;ratioP2;P2;SDS_P1;SDS_P2;PMS_P1;PMS_P2;Temp;Humidity;BMP_temperature;BMP_pressure;BME280_temperature;BME280_humidity;BME280_pressure;Samples;Min_cycle;Max_cycle;Signal;HPM_P1;HPM_P2
2022/04/26 03:36:08;;;;;;;17.03;15.33;;;9.10;99.90;;;9.77;100.00;97437.31;5256897;28;20251;-61
2022/04/26 03:38:47;;;;;;;17.27;15.60;;;9.20;99.90;;;9.81;100.00;97435.00;5258114;28;20286;-61
2022/04/26 03:41:20;;;;;;;17.67;16.02;;;9.20;99.90;;;9.87;100.00;97435.34;5250783;28;20565;-62
2022/04/26 03:43:53;;;;;;;17.53;16.00;;;9.30;99.90;;;9.90;100.00;97435.50;5251175;28;20224;-62
2022/04/26 03:46:27;;;;;;;19.65;17.90;;;9.30;99.90;;;9.90;100.00;97440.59;5251945;28;22600;-62
2022/04/26 03:49:00;;;;;;;19.98;18.02;;;9.20;99.90;;;9.90;100.00;97439.69;5252179;28;20231;-62
2022/04/26 03:51:33;;;;;;;18.90;17.02;;;9.20;99.90;;;9.90;100.00;97448.25;5256290;28;20234;-62
2022/04/26 03:54:07;;;;;;;18.17;16.48;;;9.30;99.90;;;9.91;100.00;97454.25;5261309;28;20243;-62
2022/04/26 03:56:41;;;;;;;20.35;18.38;;;9.30;99.90;;;9.92;100.00;97453.44;5256600;28;20215;-62
2022/04/26 03:59:14;;;;;;;19.52;17.70;;;9.30;99.90;;;9.93;100.00;97458.63;5257202;28;20651;-62
2022/04/26 04:01:47;;;;;;;20.45;18.48;;;9.30;99.90;;;9.91;100.00;97462.78;5255032;28;20649;-62
2022/04/26 04:04:21;;;;;;;18.25;16.45;;;9.20;99.90;;;9.90;100.00;97452.47;5254495;28;20196;-62
2022/04/26 04:06:54;;;;;;;20.73;18.63;;;9.20;99.90;;;9.88;100.00;97461.75;5261355;28;20281;-61
2022/04/26 04:09:29;;;;;;;20.08;18.23;;;9.20;99.90;;;9.88;100.00;97461.75;5262375;28;20575;-61
2022/04/26 04:12:03;;;;;;;20.10;18.17;;;9.20;99.90;;;9.86;100.00;97459.09;5251067;28;20208;-61
2022/04/26 04:14:36;;;;;;;21.20;19.00;;;9.20;99.90;;;9.81;100.00;97457.97;5258863;28;20291;-62
2022/04/26 04:17:10;;;;;;;20.45;18.35;;;9.20;99.90;;;9.78;100.00;97455.25;5259243;28;20256;-61
2022/04/26 04:19:43;;;;;;;20.40;18.50;;;9.10;99.90;;;9.75;100.00;97457.63;5257442;28;20255;-62
2022/04/26 04:22:16;;;;;;;21.33;19.13;;;9.10;99.90;;;9.79;100.00;97454.47;5262164;28;20264;-62
2022/04/26 04:24:50;;;;;;;21.00;18.92;;;9.20;99.90;;;9.87;100.00;97455.75;5261421;28;20652;-62
2022/04/26 04:27:23;;;;;;;21.55;19.45;;;9.20;99.90;;;9.87;100.00;97450.66;5256863;28;20247;-62
2022/04/26 04:30:01;;;;;;;18.58;16.88;;;9.30;99.90;;;9.87;100.00;97460.88;5258390;28;20658;-62
2022/04/26 04:32:34;;;;;;;19.40;17.55;;;9.20;99.90;;;9.88;100.00;97467.72;5253564;28;20192;-62
2022/04/26 04:35:09;;;;;;;18.35;16.55;;;9.20;99.90;;;9.93;100.00;97470.53;5256475;28;20249;-62
2022/04/26 04:37:42;;;;;;;18.00;16.38;;;9.30;99.90;;;9.91;100.00;97475.53;5260931;28;20223;-63
2022/04/26 04:40:22;;;;;;;17.92;16.23;;;9.30;99.90;;;9.91;100.00;97482.31;5261715;28;20219;-63
2022/04/26 04:42:56;;;;;;;17.58;15.85;;;9.30;99.90;;;9.95;100.00;97480.78;5255955;28;20279;-64
2022/04/26 04:45:29;;;;;;;20.50;18.40;;;9.20;99.90;;;9.89;100.00;97487.31;5259417;28;20330;-61
2022/04/26 04:48:05;;;;;;;19.20;17.30;;;9.30;99.90;;;9.91;100.00;97485.75;5253295;28;20200;-62
2022/04/26 04:50:38;;;;;;;20.15;18.23;;;9.30;99.90;;;9.97;100.00;97497.09;5259058;28;20604;-62
2022/04/26 04:53:11;;;;;;;22.13;19.48;;;9.30;99.90;;;9.99;100.00;97487.84;5258119;28;20301;-60
2022/04/26 04:55:46;;;;;;;21.52;19.33;;;9.30;99.90;;;9.96;100.00;97486.00;5255701;28;20244;-62
2022/04/26 04:58:19;;;;;;;20.85;18.88;;;9.30;99.90;;;9.91;100.00;97485.75;5254455;28;20283;-62
2022/04/26 05:00:52;;;;;;;21.73;19.63;;;9.20;99.90;;;9.79;100.00;97487.66;5265408;28;20597;-60
2022/04/26 05:03:26;;;;;;;21.42;19.23;;;9.20;99.90;;;9.81;100.00;97491.13;5259402;28;20195;-61
2022/04/26 05:05:59;;;;;;;19.63;17.63;;;9.20;99.90;;;9.81;100.00;97491.13;5265427;28;20227;-61
2022/04/26 05:08:32;;;;;;;21.02;18.85;;;9.20;99.90;;;9.86;100.00;97499.94;5257222;28;20575;-62
2022/04/26 05:11:06;;;;;;;18.88;17.08;;;9.30;99.90;;;9.92;100.00;97494.28;5255634;28;20285;-62
2022/04/26 05:13:39;;;;;;;22.13;19.77;;;9.30;99.90;;;9.93;100.00;97494.38;5247504;28;20290;-62
2022/04/26 05:16:13;;;;;;;22.25;20.02;;;9.30;99.90;;;9.99;100.00;97495.50;5250309;28;20248;-60
2022/04/26 05:18:47;;;;;;;19.67;17.77;;;9.30;99.90;;;10.03;100.00;97497.41;5258531;28;20693;-62
2022/04/26 05:21:20;;;;;;;20.92;18.83;;;9.40;99.90;;;10.04;100.00;97499.16;5263983;28;20604;-62
2022/04/26 05:26:45;;;;;;;18.23;16.48;;;9.40;99.90;;;10.03;100.00;97508.50;5252258;28;20255;-63
2022/04/26 05:29:18;;;;;;;22.15;18.55;;;9.40;99.90;;;9.86;100.00;97510.13;5258316;28;20287;-64
2022/04/26 05:31:52;;;;;;;25.63;19.25;;;9.20;99.90;;;9.82;100.00;97500.56;5260898;28;20219;-62
2022/04/26 05:34:25;;;;;;;17.63;15.82;;;9.20;99.90;;;9.84;100.00;97505.75;5263122;28;20200;-62
2022/04/26 05:36:58;;;;;;;17.48;15.65;;;9.30;99.90;;;9.86;100.00;97499.94;5260255;28;20311;-62
2022/04/26 05:39:31;;;;;;;19.65;16.75;;;9.30;99.90;;;9.86;100.00;97507.59;5260287;28;20619;-62
2022/04/26 05:42:07;;;;;;;17.40;15.48;;;9.30;99.90;;;9.90;100.00;97501.88;5258951;28;20220;-62
2022/04/26 05:44:40;;;;;;;16.23;14.32;;;9.30;99.90;;;9.95;100.00;97499.53;5259632;28;20303;-64
2022/04/26 05:47:13;;;;;;;13.63;12.40;;;9.30;99.90;;;10.01;100.00;97504.09;5261336;28;20270;-63
2022/04/26 05:49:46;;;;;;;13.48;12.18;;;9.40;99.90;;;10.02;100.00;97503.31;5260985;28;20636;-62
2022/04/26 05:52:19;;;;;;;14.68;13.18;;;9.30;99.90;;;10.04;100.00;97509.38;5251378;28;20216;-64
2022/04/26 05:54:52;;;;;;;13.52;12.23;;;9.30;99.90;;;9.99;100.00;97503.16;5260347;28;20227;-62
2022/04/26 05:57:27;;;;;;;14.25;12.85;;;9.30;99.90;;;9.96;100.00;97506.44;5258396;28;20258;-64
2022/04/26 06:00:03;;;;;;;13.00;11.90;;;9.30;99.90;;;9.97;100.00;97503.06;5257433;28;20271;-62
2022/04/26 06:02:37;;;;;;;15.27;13.93;;;9.30;99.90;;;10.02;100.00;97511.84;5259071;28;20279;-62
2022/04/26 06:05:11;;;;;;;17.63;15.82;;;9.30;99.90;;;10.08;100.00;97518.97;5257755;28;20232;-62
2022/04/26 06:07:44;;;;;;;17.55;15.85;;;9.40;99.90;;;10.16;100.00;97515.16;5258494;28;20227;-63
2022/04/26 06:10:17;;;;;;;15.88;14.30;;;9.40;99.90;;;10.16;100.00;97512.59;5261293;28;20216;-62
2022/04/26 06:12:52;;;;;;;15.38;13.88;;;9.50;99.90;;;10.18;100.00;97521.19;5258943;28;20224;-64
2022/04/26 06:15:25;;;;;;;17.90;16.20;;;9.50;99.90;;;10.23;100.00;97519.75;5251939;28;21690;-65
2022/04/26 06:17:58;;;;;;;18.20;16.38;;;9.50;99.90;;;10.29;100.00;97522.66;5260742;28;20839;-64
2022/04/26 06:20:32;;;;;;;18.95;17.05;;;9.50;99.90;;;10.31;100.00;97526.19;5262983;28;20250;-63
2022/04/26 06:23:05;;;;;;;17.92;16.20;;;9.50;99.90;;;10.30;100.00;97528.66;5253492;28;20204;-64
2022/04/26 06:25:39;;;;;;;16.70;15.07;;;9.50;99.90;;;10.32;100.00;97527.94;5251195;28;20267;-66
2022/04/26 06:28:13;;;;;;;19.13;17.13;;;9.50;99.90;;;10.29;100.00;97532.88;5256044;28;20196;-63
2022/04/26 06:30:47;;;;;;;19.50;17.52;;;9.50;99.90;;;10.28;100.00;97537.94;5259294;28;20287;-64
2022/04/26 06:33:20;;;;;;;21.25;18.80;;;9.50;99.90;;;10.26;100.00;97535.25;5258769;28;20215;-63
2022/04/26 06:35:57;;;;;;;19.73;17.63;;;9.50;99.90;;;10.26;100.00;97535.25;5253943;28;20219;-63
2022/04/26 06:38:30;;;;;;;19.10;17.10;;;9.50;99.90;;;10.24;100.00;97538.50;5265813;28;20253;-64
2022/04/26 06:41:03;;;;;;;20.55;18.52;;;9.50;99.90;;;10.17;100.00;97536.44;5257661;28;20274;-64
2022/04/26 06:43:38;;;;;;;19.42;17.42;;;9.50;99.90;;;10.23;100.00;97532.53;5264498;28;20622;-64
2022/04/26 06:46:11;;;;;;;19.20;17.20;;;9.50;99.90;;;10.30;100.00;97539.78;5263312;28;20618;-63
2022/04/26 06:48:48;;;;;;;19.05;17.13;;;9.60;99.90;;;10.31;100.00;97546.63;5257117;28;20217;-64
2022/04/26 06:51:22;;;;;;;19.00;17.00;;;9.50;99.90;;;10.33;100.00;97550.16;5260608;28;20271;-63
2022/04/26 06:53:55;;;;;;;17.08;15.35;;;9.60;99.90;;;10.34;100.00;97545.91;5261463;28;20299;-64
2022/04/26 06:56:28;;;;;;;19.13;17.35;;;9.60;99.90;;;10.38;100.00;97547.81;5264921;28;20310;-63
2022/04/26 06:59:03;;;;;;;18.13;16.33;;;9.70;99.90;;;10.43;100.00;97548.06;5264929;28;20665;-63
2022/04/26 07:01:36;;;;;;;18.48;16.48;;;9.60;99.90;;;10.48;100.00;97550.06;5259215;28;20686;-64
2022/04/26 07:04:12;;;;;;;17.88;16.08;;;9.70;99.90;;;10.48;100.00;97541.53;5263237;28;20192;-64
2022/04/26 07:07:03;;;;;;;17.75;15.90;;;9.70;99.90;;;10.52;100.00;97540.88;5262324;28;20556;-63
2022/04/26 07:09:39;;;;;;;17.25;15.50;;;9.70;99.90;;;10.47;100.00;97540.66;5261126;28;20724;-63
2022/04/26 07:12:12;;;;;;;15.07;13.68;;;9.60;99.90;;;10.51;100.00;97524.69;5260717;28;20215;-64
2022/04/26 07:14:46;;;;;;;15.00;13.60;;;9.70;99.90;;;10.48;100.00;97521.97;5259970;28;20283;-63
2022/04/26 07:17:19;;;;;;;13.20;12.05;;;9.70;99.90;;;10.39;100.00;97524.06;5261667;28;20298;-63
2022/04/26 07:19:53;;;;;;;11.82;10.82;;;9.60;99.90;;;10.32;100.00;97519.41;5264964;28;20277;-64
2022/04/26 07:22:33;;;;;;;12.70;11.50;;;9.50;99.90;;;10.34;100.00;97528.91;5266029;28;20219;-64
2022/04/26 07:25:08;;;;;;;12.90;11.82;;;9.60;99.90;;;10.36;100.00;97532.44;5261870;28;20291;-64
2022/04/26 07:27:41;;;;;;;14.00;12.77;;;9.60;99.90;;;10.42;100.00;97523.34;5263982;28;20275;-63
2022/04/26 07:30:16;;;;;;;14.35;12.95;;;9.70;99.90;;;10.48;100.00;97521.97;5253916;28;20196;-63
2022/04/26 07:35:40;;;;;;;15.60;14.13;;;9.70;99.90;;;10.67;100.00;97531.44;5257906;28;20306;-64
2022/04/26 07:38:13;;;;;;;15.50;14.00;;;9.70;99.90;;;10.62;100.00;97532.91;5265238;28;20287;-64
2022/04/26 07:40:46;;;;;;;15.25;13.82;;;9.70;99.90;;;10.61;100.00;97531.13;5264555;28;20622;-64
2022/04/26 07:43:21;;;;;;;15.60;14.10;;;9.70;99.90;;;10.59;100.00;97532.75;5262101;28;20198;-63
2022/04/26 07:45:55;;;;;;;14.23;13.02;;;9.70;99.90;;;10.56;100.00;97530.03;5257590;28;20321;-63
2022/04/26 07:48:28;;;;;;;14.50;13.23;;;9.70;99.90;;;10.50;100.00;97530.59;5258932;28;20191;-64
2022/04/26 07:51:03;;;;;;;13.90;12.70;;;9.70;99.90;;;10.46;100.00;97527.78;5256599;28;20652;-63
2022/04/26 07:53:37;;;;;;;14.50;13.20;;;9.70;99.90;;;10.41;100.00;97531.78;5261406;28;20195;-64
2022/04/26 07:56:10;;;;;;;14.55;13.25;;;9.70;99.90;;;10.28;100.00;97523.47;5258461;28;20688;-63
2022/04/26 07:58:49;;;;;;;13.95;12.77;;;9.50;99.90;;;10.29;100.00;97516.69;5251445;28;20291;-64
2022/04/26 08:01:23;;;;;;;15.15;13.75;;;9.50;99.90;;;10.28;100.00;97525.16;5264198;28;20310;-64
2022/04/26 08:03:57;;;;;;;14.90;13.55;;;9.50;99.90;;;10.33;100.00;97534.81;5259689;28;20214;-64
2022/04/26 08:06:30;;;;;;;15.27;13.95;;;9.50;99.90;;;10.31;100.00;97544.06;5264349;28;20706;-64
2022/04/26 08:09:03;;;;;;;16.00;14.40;;;9.50;99.90;;;10.34;100.00;97551.91;5263949;28;20711;-64
2022/04/26 08:11:37;;;;;;;14.52;13.27;;;9.50;99.90;;;10.41;100.00;97565.00;5258758;28;20220;-64
2022/04/26 08:14:10;;;;;;;16.45;14.95;;;9.60;99.90;;;10.46;100.00;97561.00;5263555;28;20248;-64
2022/04/26 08:16:44;;;;;;;17.00;15.40;;;9.60;99.90;;;10.50;100.00;97565.47;5260950;28;20250;-64
2022/04/26 08:19:17;;;;;;;16.05;14.65;;;9.60;99.90;;;10.58;100.00;97565.06;5267429;28;20260;-64
2022/04/26 08:21:50;;;;;;;16.70;15.20;;;9.70;99.90;;;10.69;100.00;97559.66;5259314;28;20245;-64
2022/04/26 08:27:26;;;;;;;15.32;13.98;;;9.90;99.90;;;10.80;100.00;97576.41;5263377;28;20212;-63
2022/04/26 08:29:59;;;;;;;15.50;14.20;;;9.90;99.90;;;10.81;100.00;97586.69;5261687;28;20700;-64
2022/04/26 08:32:42;;;;;;;14.82;13.32;;;9.80;99.90;;;10.81;100.00;97586.69;5263499;28;20283;-63
2022/04/26 08:35:18;;;;;;;16.17;14.70;;;9.90;99.90;;;10.86;100.00;97603.97;5263717;28;20299;-63
2022/04/26 08:37:53;;;;;;;14.95;13.55;;;10.00;99.90;;;10.91;100.00;97607.66;5256612;28;20242;-64
2022/04/26 08:40:26;;;;;;;14.93;13.73;;;9.90;99.90;;;10.90;100.00;97622.13;5261281;28;20292;-64
2022/04/26 08:43:00;;;;;;;13.75;12.55;;;9.90;99.90;;;10.81;100.00;97624.19;5263252;28;20527;-64
2022/04/26 08:45:34;;;;;;;13.65;12.45;;;9.90;99.90;;;10.82;100.00;97629.38;5262091;28;20243;-64
2022/04/26 08:51:03;;;;;;;14.00;12.77;;;9.80;99.90;;;10.74;100.00;97635.78;5259448;28;20250;-63
2022/04/26 08:53:38;;;;;;;14.27;12.98;;;9.80;99.90;;;10.78;100.00;97637.69;5257577;28;20652;-63
2022/04/26 08:56:12;;;;;;;14.27;12.98;;;9.80;99.90;;;10.73;100.00;97635.66;5263151;28;20230;-64
2022/04/26 08:58:45;;;;;;;13.85;12.68;;;9.80;99.90;;;10.72;100.00;97644.16;5258973;28;20290;-64
2022/04/26 09:01:19;;;;;;;15.07;13.75;;;9.80;99.90;;;10.77;100.00;97648.72;5257949;28;20265;-64
2022/04/26 09:03:56;;;;;;;14.75;13.45;;;9.80;99.90;;;10.83;100.00;97651.59;5262048;28;20214;-64
2022/04/26 09:06:39;;;;;;;15.95;14.45;;;9.90;99.90;;;10.81;100.00;97650.63;5264066;28;20219;-64
2022/04/26 09:09:21;;;;;;;15.63;14.18;;;9.90;99.90;;;10.79;100.00;97648.81;5257484;28;20188;-63
2022/04/26 09:12:01;;;;;;;16.33;14.93;;;9.90;99.90;;;10.86;100.00;97655.09;5263363;28;20197;-64
2022/04/26 09:14:36;;;;;;;15.43;14.10;;;9.80;99.90;;;10.86;100.00;97660.22;5257359;28;20732;-64
2022/04/26 09:17:11;;;;;;;16.05;14.55;;;9.80;99.90;;;10.79;100.00;97665.03;5259926;28;20228;-64
2022/04/26 09:19:49;;;;;;;16.42;14.90;;;9.80;99.90;;;10.82;100.00;97657.50;5261980;28;20203;-64
2022/04/26 09:22:30;;;;;;;18.20;16.40;;;9.90;99.90;;;10.85;100.00;97659.34;5258786;28;20594;-63
2022/04/26 09:25:06;;;;;;;17.27;15.68;;;9.90;99.90;;;10.91;100.00;97663.91;5261664;28;20202;-64
2022/04/26 09:27:41;;;;;;;18.10;16.40;;;10.00;99.90;;;11.00;100.00;97659.25;5253756;28;20196;-64
2022/04/26 09:30:16;;;;;;;19.77;17.92;;;10.10;99.90;;;11.02;100.00;97656.00;5261514;28;20551;-64
2022/04/26 09:32:50;;;;;;;20.02;18.13;;;10.20;99.90;;;11.18;100.00;97670.44;5258092;28;20195;-63
2022/04/26 09:35:29;;;;;;;20.33;18.42;;;10.20;99.90;;;11.21;100.00;97670.59;5258536;28;20258;-63
2022/04/26 09:38:02;;;;;;;19.25;17.55;;;10.30;99.90;;;11.23;100.00;97670.69;5254735;28;20724;-64
2022/04/26 09:40:37;;;;;;;19.55;17.70;;;10.20;99.90;;;11.36;100.00;97665.41;5249159;28;20239;-64
2022/04/26 09:43:15;;;;;;;22.15;19.95;;;10.40;99.90;;;11.43;100.00;97671.69;5251489;28;20216;-63
2022/04/26 09:45:55;;;;;;;21.17;19.20;;;10.40;99.90;;;11.34;100.00;97664.44;5260540;28;20302;-64
2022/04/26 09:48:32;;;;;;;22.10;20.08;;;10.30;99.90;;;11.45;100.00;97675.22;5254782;28;20218;-63
2022/04/26 09:51:09;;;;;;;22.95;20.83;;;10.40;99.90;;;11.40;100.00;97674.97;5250736;28;20239;-64
2022/04/26 09:53:42;;;;;;;24.80;22.40;;;10.40;99.90;;;11.42;100.00;97675.06;5255645;28;20234;-64
2022/04/26 09:56:16;;;;;;;23.35;20.92;;;10.40;99.90;;;11.39;100.00;97680.00;5255947;28;20296;-63
2022/04/26 09:59:01;;;;;;;23.48;21.27;;;10.40;99.90;;;11.47;100.00;97679.63;5253880;28;20203;-64
2022/04/26 10:01:41;;;;;;;23.23;20.92;;;10.50;99.90;;;11.69;100.00;97676.44;5256016;28;20320;-63
2022/04/26 10:04:20;;;;;;;22.23;20.13;;;10.50;99.90;;;11.69;100.00;97673.88;5251600;28;20219;-64
2022/04/26 10:07:02;;;;;;;23.17;20.90;;;10.60;99.90;;;11.79;100.00;97676.88;5248726;28;20261;-64
2022/04/26 10:09:36;;;;;;;22.10;20.02;;;10.70;99.90;;;11.94;100.00;97670.00;5258721;28;20656;-63
2022/04/26 10:12:10;;;;;;;22.48;20.38;;;10.80;99.90;;;11.97;100.00;97682.94;5261125;28;20235;-64
2022/04/26 10:14:44;;;;;;;22.20;20.13;;;10.70;99.90;;;11.95;100.00;97674.31;5256939;28;20206;-64
2022/04/26 10:17:20;;;;;;;21.27;19.33;;;10.60;99.90;;;11.89;100.00;97671.44;5266805;28;20223;-63
2022/04/26 10:19:53;;;;;;;21.33;19.30;;;10.60;99.90;;;12.16;100.00;97675.34;5259943;28;20204;-63
2022/04/26 10:22:59;;;;;;;20.83;18.75;;;10.80;99.90;;;12.17;100.00;97677.09;5261969;28;20255;-63
2022/04/26 10:25:32;;;;;;;22.42;20.17;;;10.90;99.90;;;12.44;100.00;97666.38;5259049;28;20923;-63
2022/04/26 10:28:23;;;;;;;22.42;20.40;;;11.10;99.90;;;12.61;100.00;97665.47;5262878;28;20242;-64
2022/04/26 10:30:59;;;;;;;22.98;20.77;;;11.30;99.90;;;12.69;100.00;97677.78;5260465;28;20293;-63
2022/04/26 10:33:36;;;;;;;21.52;19.73;;;11.30;99.90;;;12.67;100.00;97676.81;5263914;28;20197;-63
2022/04/26 10:36:34;;;;;;;21.02;19.15;;;11.40;99.90;;;12.76;100.00;97666.97;5252212;28;20247;-63
2022/04/26 10:39:39;;;;;;;20.70;18.80;;;11.40;99.90;;;12.86;100.00;97671.72;5249312;28;20683;-63
2022/04/26 10:42:30;;;;;;;20.02;18.23;;;11.60;99.90;;;12.95;100.00;97674.69;5192396;28;20194;-63
2022/04/26 10:45:12;;;;;;;19.98;17.98;;;11.80;99.90;;;13.15;100.00;97670.44;5249539;28;20287;-63
2022/04/26 10:47:45;;;;;;;20.70;18.88;;;12.10;99.90;;;13.20;97.03;97670.66;5256202;28;20246;-62
2022/04/26 10:50:32;;;;;;;17.88;16.27;;;12.10;99.90;;;13.21;97.02;97659.56;5255568;28;20332;-62
2022/04/26 10:53:45;;;;;;;18.08;16.48;;;12.30;99.90;;;13.34;93.60;97666.16;5250970;28;20197;-63
2022/04/26 10:56:18;;;;;;;17.80;16.30;;;12.40;99.90;;;13.53;99.84;97668.69;5252935;28;20230;-63
2022/04/26 10:58:52;;;;;;;19.10;17.40;;;12.50;99.90;;;13.61;97.52;97677.59;5254017;28;20204;-64
2022/04/26 11:01:27;;;;;;;17.35;15.85;;;12.60;99.90;;;13.67;95.67;97671.81;5257315;28;20232;-63
2022/04/26 11:04:01;;;;;;;15.27;13.93;;;12.80;99.90;;;13.64;90.74;97671.69;5267620;28;20273;-63
2022/04/26 11:06:37;;;;;;;14.65;13.35;;;12.80;99.90;;;13.65;87.84;97676.91;5258991;28;20302;-63
2022/04/26 11:09:15;;;;;;;12.32;11.27;;;12.80;99.90;;;13.64;86.32;97667.44;5258566;28;20206;-63
2022/04/26 11:11:50;;;;;;;12.25;11.20;;;12.70;99.90;;;13.69;90.62;97671.09;5262461;28;20301;-63
2022/04/26 11:14:28;;;;;;;12.00;10.93;;;12.70;99.90;;;13.56;84.93;97673.94;5256433;28;20249;-63
2022/04/26 11:17:03;;;;;;;12.15;11.15;;;12.70;99.90;;;13.56;88.49;97673.06;5252068;28;20247;-63
2022/04/26 11:19:39;;;;;;;12.35;11.35;;;12.70;99.90;;;13.64;88.88;97667.44;5254088;28;20684;-63
2022/04/26 11:22:13;;;;;;;12.23;11.32;;;12.70;99.90;;;13.64;88.01;97674.28;5248845;28;20226;-62
2022/04/26 11:30:35;;;;;;;11.38;10.38;;;12.60;99.90;;;13.60;84.22;97667.25;5252567;28;20319;-62
2022/04/26 11:33:11;;;;;;;12.35;11.23;;;12.70;99.90;;;13.63;83.05;97668.25;5254267;28;20241;-62
2022/04/26 11:35:45;;;;;;;12.32;11.13;;;12.80;99.90;;;13.65;82.95;97663.16;5254272;28;20656;-62
2022/04/26 11:38:18;;;;;;;11.90;10.82;;;13.00;99.90;;;13.90;88.13;97662.50;5253990;28;20289;-61
2022/04/26 11:40:56;;;;;;;12.38;11.15;;;13.20;99.90;;;14.04;85.72;97666.50;5253940;28;20205;-62
2022/04/26 11:43:32;;;;;;;10.52;9.73;;;13.40;99.90;;;13.98;85.04;97664.56;5254618;28;21617;-62
2022/04/26 11:46:07;;;;;;;10.82;9.93;;;13.40;99.90;;;13.97;80.53;97661.94;5254727;28;20784;-61
2022/04/26 11:48:48;;;;;;;12.05;10.90;;;13.40;99.90;;;13.95;77.78;97664.44;5251762;28;20273;-61
2022/04/26 11:51:22;;;;;;;10.75;9.85;;;13.40;99.90;;;14.12;83.30;97656.53;5253485;28;20199;-61
2022/04/26 11:53:55;;;;;;;10.20;9.40;;;13.60;99.90;;;14.24;83.13;97651.88;5250042;28;20749;-61
2022/04/26 11:56:29;;;;;;;10.93;9.93;;;13.70;99.90;;;14.27;80.87;97652.00;5253759;28;20238;-62
2022/04/26 11:59:03;;;;;;;9.63;8.70;;;13.80;99.90;;;14.35;82.70;97660.88;5251025;28;20212;-61
2022/04/26 12:01:36;;;;;;;8.23;7.43;;;13.90;99.90;;;14.21;73.29;97656.91;5249944;28;20299;-60
2022/04/26 12:04:10;;;;;;;9.07;8.27;;;13.80;99.90;;;14.20;76.95;97657.72;5251189;28;20493;-61
2022/04/26 12:06:44;;;;;;;8.48;7.72;;;13.80;99.90;;;14.28;79.28;97653.78;5255083;28;20216;-61
2022/04/26 12:09:17;;;;;;;8.43;7.63;;;13.80;99.90;;;14.33;76.97;97653.94;5249382;28;20671;-60
2022/04/26 12:12:02;;;;;;;8.27;7.57;;;13.80;99.90;;;14.42;74.65;97652.59;5251529;28;20203;-60
2022/04/26 12:14:37;;;;;;;6.45;5.95;;;14.00;99.90;;;14.43;74.26;97654.34;5255688;28;20189;-59
2022/04/26 12:17:18;;;;;;;7.20;6.25;;;14.00;99.90;;;14.41;71.77;97655.09;5255154;28;20300;-60
2022/04/26 12:19:55;;;;;;;6.50;6.10;;;13.90;99.90;;;14.41;70.04;97671.41;5253358;28;20214;-60
2022/04/26 12:22:37;;;;;;;7.75;7.15;;;13.90;99.90;;;14.38;72.66;97678.13;5250547;28;20197;-60
2022/04/26 12:25:16;;;;;;;7.80;7.20;;;13.80;99.90;;;14.09;70.72;97687.25;5249299;28;20302;-60
2022/04/26 12:28:07;;;;;;;10.68;9.73;;;13.50;99.90;;;13.57;68.25;97700.53;5253936;28;20193;-58
2022/04/26 12:30:41;;;;;;;9.77;9.07;;;13.20;99.90;;;13.29;70.74;97710.47;5251417;28;20196;-60
2022/04/26 12:33:27;;;;;;;9.82;9.07;;;12.80;99.90;;;13.10;73.31;97712.97;5246441;28;20217;-61
2022/04/26 12:36:02;;;;;;;9.75;9.05;;;12.50;99.90;;;13.00;81.84;97709.13;5253580;28;20233;-61
2022/04/26 12:38:46;;;;;;;9.48;8.57;;;12.30;99.90;;;12.68;81.59;97722.19;5252328;28;20660;-61
2022/04/26 12:41:19;;;;;;;9.98;9.18;;;12.00;99.90;;;12.46;86.30;97726.28;5251006;28;20614;-61
2022/04/26 12:44:03;;;;;;;10.55;9.65;;;11.90;99.90;;;12.47;91.47;97737.41;5253439;28;20304;-62
2022/04/26 12:46:47;;;;;;;11.60;10.63;;;11.90;99.90;;;12.38;91.89;97737.88;5252470;28;20247;-60
2022/04/26 12:52:55;;;;;;;11.77;10.88;;;11.70;99.90;;;12.05;94.92;97729.44;5250967;28;20200;-61
2022/04/26 12:55:30;;;;;;;12.55;11.55;;;11.60;99.90;;;12.06;97.90;97742.31;5252029;28;20298;-61
2022/04/26 12:58:08;;;;;;;11.50;10.57;;;11.60;99.90;;;12.11;100.00;97745.97;5252523;28;20241;-59
2022/04/26 13:00:45;;;;;;;10.63;9.82;;;11.60;99.90;;;12.14;96.21;97745.25;5255247;28;20691;-61
2022/04/26 13:03:21;;;;;;;11.13;10.23;;;11.60;99.90;;;12.15;95.81;97745.31;5262424;28;20196;-60
2022/04/26 13:06:08;;;;;;;11.15;10.13;;;11.60;99.90;;;12.25;99.91;97756.03;5255111;28;20220;-61
2022/04/26 13:09:01;;;;;;;10.30;9.40;;;11.70;99.90;;;12.39;96.32;97760.16;5256258;28;20212;-61
2022/04/26 13:11:39;;;;;;;9.48;8.68;;;11.80;99.90;;;12.53;91.04;97764.25;5252167;28;20230;-60
2022/04/26 13:14:12;;;;;;;9.90;9.10;;;12.00;99.90;;;12.66;96.11;97769.94;5251118;28;20562;-61
2022/04/26 13:17:07;;;;;;;9.32;8.48;;;12.10;99.90;;;12.84;90.91;97774.25;5250887;28;20223;-60
2022/04/26 13:19:40;;;;;;;8.45;7.85;;;12.20;99.90;;;12.94;93.39;97777.25;5251704;28;20204;-60
2022/04/26 13:22:15;;;;;;;8.55;7.95;;;12.30;99.90;;;12.98;93.28;97780.03;5252001;28;20196;-61
2022/04/26 13:24:49;;;;;;;8.05;7.43;;;12.30;99.90;;;13.04;92.13;97780.28;5251987;28;20203;-61
2022/04/26 13:27:22;;;;;;;7.90;7.20;;;12.30;99.90;;;12.98;85.13;97785.16;5251301;28;20307;-61
2022/04/26 13:29:55;;;;;;;6.95;6.45;;;12.30;99.90;;;13.02;90.18;97776.81;5250641;28;20245;-61
2022/04/26 13:32:30;;;;;;;6.95;6.32;;;12.30;99.90;;;12.95;83.21;97777.31;5250203;28;20188;-61
2022/04/26 13:35:05;;;;;;;7.03;6.53;;;12.30;99.90;;;12.88;83.60;97777.84;5254263;28;20287;-61
2022/04/26 13:37:39;;;;;;;8.18;7.47;;;12.20;99.90;;;12.90;90.22;97775.34;5252111;28;20214;-61
2022/04/26 13:40:13;;;;;;;8.98;8.25;;;12.20;99.90;;;12.96;92.37;97785.88;5254547;28;20231;-61
2022/04/26 13:42:46;;;;;;;12.90;11.73;;;12.20;99.90;;;12.79;85.12;97801.38;5248866;28;20315;-61
2022/04/26 13:45:20;;;;;;;9.75;8.95;;;12.10;99.90;;;12.66;85.58;97821.25;5247300;28;21137;-59
2022/04/26 13:47:54;;;;;;;9.95;9.23;;;12.00;99.90;;;12.10;84.08;97817.63;5261057;28;20196;-61
2022/04/26 13:50:27;;;;;;;10.90;9.85;;;11.40;99.90;;;11.68;91.79;97818.06;5264349;28;20863;-60
2022/04/26 13:53:00;;;;;;;12.90;11.80;;;10.90;99.90;;;11.39;94.67;97825.88;5263887;28;20208;-60
2022/04/26 13:55:34;;;;;;;13.73;12.43;;;10.60;99.90;;;11.08;97.45;97821.69;5262889;28;20260;-61
2022/04/26 13:58:09;;;;;;;14.57;13.05;;;10.40;99.90;;;10.86;100.00;97822.19;5266836;28;20236;-60
2022/04/26 14:00:42;;;;;;;14.35;13.02;;;10.20;99.90;;;10.83;100.00;97825.44;5263675;28;20193;-60
2022/04/26 14:03:16;;;;;;;15.25;13.73;;;10.20;99.90;;;10.85;100.00;97823.00;5270258;28;20200;-61
2022/04/26 14:05:49;;;;;;;14.57;13.05;;;10.20;99.90;;;10.76;100.00;97828.47;5267518;28;20214;-61
2022/04/26 14:08:22;;;;;;;13.52;12.32;;;10.10;99.90;;;10.63;100.00;97825.13;5262987;28;20228;-61
2022/04/26 14:10:55;;;;;;;14.10;12.88;;;10.00;99.90;;;10.56;100.00;97826.47;5264089;28;20227;-61
2022/04/26 14:21:46;;;;;;;13.95;12.65;;;10.00;99.90;;;10.49;100.00;97821.81;5265335;28;20607;-61
2022/04/26 14:22:03;;;;;;;12.65;11.50;;;10.00;99.90;;;10.63;100.00;97820.91;5265501;28;20579;-60
2022/04/26 14:24:36;;;;;;;12.82;11.63;;;10.10;99.90;;;10.73;100.00;97812.06;5260708;28;20220;-60
2022/04/26 14:27:09;;;;;;;11.38;10.27;;;10.10;99.90;;;10.72;100.00;97812.88;5268755;28;20244;-60
2022/04/26 14:29:42;;;;;;;11.55;10.45;;;10.20;99.90;;;10.87;100.00;97815.38;5270491;28;20204;-60
2022/04/26 14:32:15;;;;;;;10.60;9.60;;;10.30;99.90;;;11.08;100.00;97819.13;5268965;28;20199;-60
2022/04/26 14:34:50;;;;;;;9.95;9.13;;;10.50;99.90;;;11.21;100.00;97818.09;5267931;28;20189;-60
2022/04/26 14:37:23;;;;;;;9.55;8.65;;;10.60;99.90;;;11.29;100.00;97821.94;5262688;28;20361;-60
2022/04/26 14:39:56;;;;;;;8.23;7.55;;;10.70;99.90;;;11.44;99.34;97811.63;5265818;28;20203;-60
2022/04/26 14:42:29;;;;;;;9.10;8.30;;;10.90;99.90;;;11.62;100.00;97812.63;5269034;28;20219;-60
2022/04/26 14:45:03;;;;;;;9.90;9.02;;;11.00;99.90;;;11.76;100.00;97799.63;5263246;28;20252;-60